createdAt,value
2022-10-14T00:01:32.996Z,9.09
2022-10-14T00:04:00.256Z,9.15
2022-10-14T00:06:29.975Z,9.17
2022-10-14T00:09:02.045Z,9.23
2022-10-14T00:11:32.444Z,9.24
2022-10-14T00:14:05.521Z,9.21
2022-10-14T00:16:34.888Z,9.19
2022-10-14T00:19:01.910Z,9.22
2022-10-14T00:21:29.888Z,9.30
2022-10-14T00:23:57.758Z,9.31
2022-10-14T00:26:34.038Z,9.40
2022-10-14T00:29:02.148Z,9.45
2022-10-14T00:31:29.483Z,9.60
2022-10-14T00:33:56.575Z,9.71
2022-10-14T00:36:24.649Z,9.73
2022-10-14T00:38:52.904Z,9.77
2022-10-14T00:41:24.082Z,9.82
2022-10-14T00:43:57.257Z,9.83
2022-10-14T00:46:25.413Z,9.85
2022-10-14T00:48:52.580Z,9.82
2022-10-14T00:51:19.982Z,9.79
2022-10-14T00:53:46.783Z,9.81
2022-10-14T00:56:15.739Z,9.79
2022-10-14T00:58:44.604Z,9.82
2022-10-14T01:01:11.906Z,9.81
2022-10-14T01:03:40.216Z,9.83
2022-10-14T01:06:09.734Z,9.87
2022-10-14T01:09:04.832Z,9.89
2022-10-14T01:11:37.119Z,9.93
2022-10-14T01:14:06.522Z,9.95
2022-10-14T01:16:58.000Z,9.99
2022-10-14T01:19:52.881Z,10.07
2022-10-14T01:22:33.072Z,10.09
2022-10-14T01:25:08.411Z,10.12
2022-10-14T01:28:04.045Z,10.15
2022-10-14T01:30:40.257Z,10.21
2022-10-14T01:33:14.493Z,10.20
2022-10-14T01:35:51.073Z,10.20
2022-10-14T01:38:27.469Z,10.22
2022-10-14T01:41:17.769Z,10.23
2022-10-14T01:43:47.780Z,10.25
2022-10-14T01:46:16.176Z,10.28
2022-10-14T01:48:49.147Z,10.30
2022-10-14T01:51:21.979Z,10.31
2022-10-14T01:53:57.846Z,10.28
2022-10-14T01:56:27.713Z,10.28
2022-10-14T01:58:55.013Z,10.28
2022-10-14T02:01:21.611Z,10.24
2022-10-14T02:03:48.537Z,10.22
2022-10-14T02:06:36.059Z,10.23
2022-10-14T02:09:20.631Z,10.23
2022-10-14T02:12:23.469Z,10.26
2022-10-14T02:15:13.203Z,10.27
2022-10-14T02:17:48.191Z,10.30
2022-10-14T02:20:31.187Z,10.35
2022-10-14T02:23:08.224Z,10.33
2022-10-14T02:25:39.222Z,10.36
2022-10-14T02:28:09.095Z,10.35
2022-10-14T02:30:41.953Z,10.38
2022-10-14T02:33:08.711Z,10.42
2022-10-14T02:35:37.589Z,10.39
2022-10-14T02:38:06.306Z,10.39
2022-10-14T02:40:35.916Z,10.45
2022-10-14T02:43:02.470Z,10.51
2022-10-14T02:45:29.897Z,10.53
2022-10-14T02:47:56.394Z,10.59
2022-10-14T02:50:24.223Z,10.69
2022-10-14T02:52:50.722Z,10.71
2022-10-14T02:55:17.275Z,10.75
2022-10-14T02:57:43.738Z,10.75
2022-10-14T03:00:11.027Z,10.72
2022-10-14T03:02:37.522Z,10.73
2022-10-14T03:05:04.469Z,10.73
2022-10-14T03:07:31.055Z,10.75
2022-10-14T03:10:00.702Z,10.76
2022-10-14T03:12:27.221Z,10.78
2022-10-14T03:14:53.762Z,10.78
2022-10-14T03:17:20.441Z,10.79
2022-10-14T03:19:47.008Z,10.77
2022-10-14T03:22:13.499Z,10.78
2022-10-14T03:24:39.967Z,10.78
2022-10-14T03:27:06.502Z,10.76
2022-10-14T03:29:34.081Z,10.77
2022-10-14T03:32:00.592Z,10.78
2022-10-14T03:34:27.052Z,10.76
2022-10-14T03:36:53.550Z,10.78
2022-10-14T03:39:20.494Z,10.77
2022-10-14T03:41:47.244Z,10.76
2022-10-14T03:44:13.700Z,10.73
2022-10-14T03:46:40.173Z,10.73
2022-10-14T03:49:06.673Z,10.74
2022-10-14T03:51:33.246Z,10.74
2022-10-14T03:53:59.927Z,10.72
2022-10-14T03:56:26.434Z,10.72
2022-10-14T03:58:52.933Z,10.72
2022-10-14T04:01:19.461Z,10.71
2022-10-14T04:03:50.758Z,10.72
2022-10-14T04:06:17.486Z,10.71
2022-10-14T04:08:44.453Z,10.72
2022-10-14T04:11:11.141Z,10.74
2022-10-14T04:13:37.664Z,10.76
2022-10-14T04:16:05.276Z,10.74
2022-10-14T04:18:34.856Z,10.75
2022-10-14T04:21:10.725Z,10.75
2022-10-14T04:23:37.610Z,10.74
2022-10-14T04:26:05.757Z,10.74
2022-10-14T04:28:33.040Z,10.73
2022-10-14T04:30:59.713Z,10.74
2022-10-14T04:33:26.554Z,10.77
2022-10-14T04:36:00.411Z,10.75
2022-10-14T04:38:27.369Z,10.76
2022-10-14T04:40:54.039Z,10.77
2022-10-14T04:43:20.883Z,10.81
2022-10-14T04:45:47.633Z,10.79
2022-10-14T04:48:14.584Z,10.80
2022-10-14T04:50:41.079Z,10.85
2022-10-14T04:53:13.065Z,10.80
2022-10-14T04:55:40.064Z,10.77
2022-10-14T04:58:06.616Z,10.85
2022-10-14T05:00:35.258Z,10.89
2022-10-14T05:03:01.749Z,10.87
2022-10-14T05:05:28.490Z,10.87
2022-10-14T05:07:55.044Z,10.89
2022-10-14T05:10:22.367Z,10.95
2022-10-14T05:12:49.677Z,10.90
2022-10-14T05:15:16.777Z,10.88
2022-10-14T05:17:44.742Z,10.86
2022-10-14T05:20:12.217Z,10.87
2022-10-14T05:22:39.333Z,10.91
2022-10-14T05:25:06.709Z,10.89
2022-10-14T05:27:33.256Z,10.89
2022-10-14T05:29:59.739Z,10.89
2022-10-14T05:32:26.227Z,10.93
2022-10-14T05:34:52.907Z,10.95
2022-10-14T05:37:19.572Z,10.94
2022-10-14T05:39:46.554Z,10.95
2022-10-14T05:42:13.079Z,10.97
2022-10-14T05:44:39.639Z,10.99
2022-10-14T05:47:06.171Z,11.81
2022-10-14T05:49:32.668Z,12.07
2022-10-14T05:51:59.187Z,12.04
2022-10-14T05:54:25.676Z,12.28
2022-10-14T05:56:52.529Z,11.91
2022-10-14T05:59:19.517Z,11.65
2022-10-14T06:01:46.020Z,11.49
2022-10-14T06:04:20.486Z,11.46
2022-10-14T06:06:47.024Z,11.43
2022-10-14T06:09:13.822Z,11.44
2022-10-14T06:11:40.545Z,11.46
2022-10-14T06:14:07.076Z,11.48
2022-10-14T06:16:34.084Z,11.57
2022-10-14T06:19:00.639Z,11.63
2022-10-14T06:21:27.475Z,11.76
2022-10-14T06:23:53.950Z,11.76
2022-10-14T06:26:20.861Z,11.83
2022-10-14T06:28:47.478Z,11.87
2022-10-14T06:31:13.952Z,11.89
2022-10-14T06:33:40.522Z,11.88
2022-10-14T06:36:07.604Z,11.85
2022-10-14T06:38:34.131Z,11.85
2022-10-14T06:41:00.978Z,11.83
2022-10-14T06:43:27.483Z,11.89
2022-10-14T06:45:57.060Z,11.95
2022-10-14T06:48:24.981Z,12.08
2022-10-14T06:50:52.215Z,12.18
2022-10-14T06:53:19.039Z,12.27
2022-10-14T06:55:45.617Z,12.37
2022-10-14T06:58:12.163Z,12.42
2022-10-14T07:00:38.733Z,12.51
2022-10-14T07:03:05.297Z,12.68
2022-10-14T07:05:31.812Z,12.70
2022-10-14T07:07:58.714Z,12.72
2022-10-14T07:10:25.792Z,12.74
2022-10-14T07:12:55.818Z,12.81
2022-10-14T07:15:22.602Z,12.85
2022-10-14T07:17:49.113Z,12.90
2022-10-14T07:20:16.325Z,12.93
2022-10-14T07:22:43.333Z,12.96
2022-10-14T07:25:10.205Z,12.90
2022-10-14T07:27:36.780Z,13.03
2022-10-14T07:30:05.178Z,13.07
2022-10-14T07:32:36.848Z,13.10
2022-10-14T07:35:04.034Z,13.34
2022-10-14T07:37:30.630Z,13.37
2022-10-14T07:39:57.405Z,13.57
2022-10-14T07:42:23.968Z,13.74
2022-10-14T07:44:50.535Z,13.94
2022-10-14T07:47:17.034Z,14.24
2022-10-14T07:49:43.602Z,14.31
2022-10-14T07:52:10.069Z,14.66
2022-10-14T07:54:36.736Z,14.78
2022-10-14T07:57:03.411Z,15.23
2022-10-14T07:59:32.814Z,15.84
2022-10-14T08:01:59.496Z,16.76
2022-10-14T08:04:26.332Z,17.58
2022-10-14T08:06:52.853Z,19.70
2022-10-14T08:09:20.170Z,19.32
2022-10-14T08:11:46.967Z,19.01
2022-10-14T08:14:14.069Z,18.90
2022-10-14T08:16:40.880Z,19.37
2022-10-14T08:19:14.131Z,19.17
2022-10-14T08:21:42.694Z,19.93
2022-10-14T08:24:09.701Z,21.56
2022-10-14T08:26:38.912Z,22.23
2022-10-14T08:29:09.725Z,22.26
2022-10-14T08:31:36.533Z,21.42
2022-10-14T08:34:03.126Z,20.95
2022-10-14T08:36:29.640Z,20.70
2022-10-14T08:38:56.267Z,20.71
2022-10-14T08:42:06.950Z,21.32
2022-10-14T08:44:45.720Z,21.14
2022-10-14T08:47:15.683Z,21.79
2022-10-14T08:50:04.774Z,21.02
2022-10-14T08:52:38.479Z,20.89
2022-10-14T08:55:19.333Z,21.41
2022-10-14T08:57:57.050Z,23.19
2022-10-14T09:00:23.644Z,21.54
2022-10-14T09:02:51.836Z,21.94
2022-10-14T09:05:22.661Z,21.58
2022-10-14T09:07:53.969Z,22.05
2022-10-14T09:10:42.195Z,22.58
2022-10-14T09:13:18.474Z,22.26
2022-10-14T09:15:50.289Z,21.64
2022-10-14T09:18:30.245Z,22.04
2022-10-14T09:20:58.413Z,22.26
2022-10-14T09:23:27.631Z,22.31
2022-10-14T09:25:58.728Z,22.07
2022-10-14T09:28:44.769Z,22.13
2022-10-14T09:31:13.455Z,22.66
2022-10-14T09:33:42.946Z,23.83
2022-10-14T09:36:21.925Z,23.32
2022-10-14T09:38:52.525Z,24.35
2022-10-14T09:41:25.522Z,23.57
2022-10-14T09:44:21.563Z,23.65
2022-10-14T09:47:00.096Z,23.25
2022-10-14T09:49:40.369Z,23.87
2022-10-14T09:52:08.523Z,25.20
2022-10-14T09:54:35.420Z,24.83
2022-10-14T09:57:08.192Z,24.00
2022-10-14T09:59:50.745Z,23.84
2022-10-14T10:02:24.543Z,22.09
2022-10-14T10:04:52.316Z,20.68
2022-10-14T10:07:37.058Z,20.17
2022-10-14T10:10:18.675Z,19.61
2022-10-14T10:12:47.176Z,18.90
2022-10-14T10:15:19.836Z,19.30
2022-10-14T10:17:47.894Z,19.14
2022-10-14T10:20:31.952Z,19.24
2022-10-14T10:23:25.400Z,18.95
2022-10-14T10:25:52.901Z,18.44
2022-10-14T10:28:31.038Z,18.73
2022-10-14T10:31:43.265Z,21.10
2022-10-14T10:34:29.047Z,23.41
2022-10-14T10:37:16.938Z,23.15
2022-10-14T10:40:03.106Z,21.93
2022-10-14T10:42:39.759Z,21.80
2022-10-14T10:45:37.067Z,22.40
2022-10-14T10:48:21.133Z,22.05
2022-10-14T10:50:56.299Z,20.72
2022-10-14T10:53:41.290Z,22.74
2022-10-14T10:56:35.165Z,24.97
2022-10-14T10:59:20.492Z,26.23
2022-10-14T11:02:10.181Z,26.70
2022-10-14T11:04:47.858Z,25.86
2022-10-14T11:07:55.903Z,24.83
2022-10-14T11:10:46.963Z,25.81
2022-10-14T11:13:22.288Z,28.17
2022-10-14T11:16:05.448Z,28.02
2022-10-14T11:18:55.079Z,26.94
2022-10-14T11:21:53.677Z,25.04
2022-10-14T11:24:58.666Z,23.29
2022-10-14T11:27:40.999Z,25.25
2022-10-14T11:30:16.297Z,25.30
2022-10-14T11:33:00.094Z,24.16
2022-10-14T11:35:51.093Z,23.04
2022-10-14T11:38:29.621Z,21.73
2022-10-14T11:41:33.030Z,22.15
2022-10-14T11:44:13.247Z,23.14
2022-10-14T11:46:47.514Z,24.57
2022-10-14T11:49:22.374Z,25.38
2022-10-14T11:52:07.686Z,25.25
2022-10-14T11:54:44.130Z,25.06
2022-10-14T11:57:32.680Z,26.39
2022-10-14T12:00:42.178Z,26.56
2022-10-14T12:03:21.580Z,27.05
2022-10-14T12:06:04.394Z,26.08
2022-10-14T12:08:41.996Z,25.24
2022-10-14T12:11:39.251Z,24.70
2022-10-14T12:14:43.608Z,24.33
2022-10-14T12:17:23.054Z,24.25
2022-10-14T12:19:51.265Z,22.96
2022-10-14T12:22:25.045Z,24.06
2022-10-14T12:24:59.664Z,23.17
2022-10-14T12:27:28.451Z,23.37
2022-10-14T12:29:58.983Z,22.93
2022-10-14T12:32:27.737Z,23.01
2022-10-14T12:34:56.794Z,23.16
2022-10-14T12:37:32.719Z,22.46
2022-10-14T12:40:02.528Z,22.05
2022-10-14T12:43:07.685Z,22.86
2022-10-14T12:45:35.871Z,21.82
2022-10-14T12:48:04.447Z,21.74
2022-10-14T12:50:36.807Z,21.28
2022-10-14T12:53:08.430Z,20.52
2022-10-14T12:55:51.573Z,21.21
2022-10-14T12:58:28.869Z,21.87
2022-10-14T13:01:17.848Z,21.34
2022-10-14T13:03:53.074Z,22.33
2022-10-14T13:06:36.969Z,21.85
2022-10-14T13:09:12.447Z,21.96
2022-10-14T13:12:06.153Z,21.81
2022-10-14T13:14:53.747Z,21.31
2022-10-14T13:17:45.773Z,21.53
2022-10-14T13:20:33.965Z,20.56
2022-10-14T13:23:31.611Z,20.53
2022-10-14T13:26:21.333Z,20.61
2022-10-14T13:28:57.043Z,19.26
2022-10-14T13:31:30.535Z,19.79
2022-10-14T13:34:12.746Z,20.07
2022-10-14T13:36:56.654Z,20.04
2022-10-14T13:39:23.552Z,20.29
2022-10-14T13:41:50.481Z,20.36
2022-10-14T13:44:21.841Z,19.86
2022-10-14T13:46:49.966Z,19.91
2022-10-14T13:49:24.420Z,19.48
2022-10-14T13:52:01.770Z,19.09
2022-10-14T13:54:32.584Z,18.59
2022-10-14T14:02:44.604Z,18.82
2022-10-14T14:05:16.284Z,18.70
2022-10-14T14:10:30.774Z,18.54
2022-10-14T14:12:59.803Z,18.61
2022-10-14T14:15:29.090Z,18.52
2022-10-14T14:17:55.653Z,18.39
2022-10-14T14:20:26.355Z,18.45
2022-10-14T14:22:52.845Z,18.50
2022-10-14T14:25:34.619Z,18.45
2022-10-14T14:28:05.653Z,18.20
2022-10-14T14:30:35.141Z,18.35
2022-10-14T14:33:15.070Z,18.08
2022-10-14T14:35:54.199Z,18.13
2022-10-14T14:38:33.155Z,18.15
2022-10-14T14:41:22.495Z,17.98
2022-10-14T14:44:07.645Z,17.76
2022-10-14T14:46:40.755Z,17.77
2022-10-14T14:49:08.697Z,17.73
2022-10-14T14:51:38.041Z,17.72
2022-10-14T14:54:06.249Z,17.60
2022-10-14T14:56:40.079Z,17.72
2022-10-14T14:59:37.577Z,17.45
2022-10-14T15:02:15.626Z,17.29
2022-10-14T15:04:42.617Z,17.29
2022-10-14T15:07:21.644Z,17.11
2022-10-14T15:09:53.853Z,16.90
2022-10-14T15:12:34.199Z,16.82
2022-10-14T15:15:02.399Z,16.73
2022-10-14T15:17:34.248Z,16.69
2022-10-14T15:20:30.620Z,16.53
2022-10-14T15:22:57.140Z,16.34
2022-10-14T15:25:27.941Z,16.24
2022-10-14T15:27:59.407Z,16.10
2022-10-14T15:30:27.431Z,16.03
2022-10-14T15:32:59.530Z,15.84
2022-10-14T15:35:27.332Z,15.71
2022-10-14T15:37:54.158Z,15.64
2022-10-14T15:40:26.075Z,15.52
2022-10-14T15:42:52.918Z,15.36
2022-10-14T15:45:19.993Z,15.26
2022-10-14T15:47:53.353Z,15.17
2022-10-14T15:50:23.492Z,15.17
2022-10-14T15:52:53.373Z,15.13
2022-10-14T15:55:35.282Z,15.03
2022-10-14T15:58:02.591Z,14.93
2022-10-14T16:00:29.349Z,14.86
2022-10-14T16:03:00.839Z,14.86
2022-10-14T16:05:29.462Z,14.80
2022-10-14T16:07:56.784Z,14.75
2022-10-14T16:10:24.711Z,14.67
2022-10-14T16:12:51.927Z,14.61
2022-10-14T16:15:32.935Z,14.57
2022-10-14T16:17:59.471Z,14.51
2022-10-14T16:20:26.967Z,14.57
2022-10-14T16:22:54.102Z,14.69
2022-10-14T16:25:25.240Z,14.69
2022-10-14T16:27:52.553Z,14.65
2022-10-14T16:30:19.645Z,14.57
2022-10-14T16:32:46.199Z,14.45
2022-10-14T16:35:12.876Z,14.38
2022-10-14T16:37:41.364Z,14.40
2022-10-14T16:40:08.419Z,14.45
2022-10-14T16:42:34.891Z,14.39
2022-10-14T16:45:01.406Z,14.30
2022-10-14T16:47:28.283Z,14.26
2022-10-14T16:49:54.844Z,14.23
2022-10-14T16:52:21.874Z,14.16
2022-10-14T16:54:48.635Z,14.10
2022-10-14T16:57:16.867Z,14.16
2022-10-14T16:59:43.369Z,14.15
2022-10-14T17:02:15.252Z,14.22
2022-10-14T17:04:42.405Z,14.15
2022-10-14T17:07:09.804Z,14.10
2022-10-14T17:09:36.723Z,14.10
2022-10-14T17:12:06.920Z,14.03
2022-10-14T17:14:36.419Z,13.94
2022-10-14T17:17:02.922Z,13.93
2022-10-14T17:19:29.565Z,13.95
2022-10-14T17:21:56.098Z,13.97
2022-10-14T17:24:23.239Z,13.96
2022-10-14T17:26:50.440Z,13.89
2022-10-14T17:29:17.015Z,13.92
2022-10-14T17:31:44.045Z,13.88
2022-10-14T17:34:10.555Z,13.90
2022-10-14T17:36:37.679Z,13.88
2022-10-14T17:39:04.816Z,13.89
2022-10-14T17:41:31.790Z,13.84
2022-10-14T17:44:00.032Z,13.81
2022-10-14T17:46:29.173Z,13.78
2022-10-14T17:48:58.166Z,13.75
2022-10-14T17:51:25.655Z,13.74
2022-10-14T17:53:54.086Z,13.71
2022-10-14T17:56:20.936Z,13.71
2022-10-14T17:58:47.434Z,13.69
2022-10-14T18:01:16.118Z,13.67
2022-10-14T18:03:47.299Z,13.64
2022-10-14T18:06:15.736Z,13.61
2022-10-14T18:08:44.148Z,13.62
2022-10-14T18:11:12.371Z,13.64
2022-10-14T18:16:14.369Z,13.62
2022-10-14T18:18:41.978Z,13.57
2022-10-14T18:21:09.708Z,13.56
2022-10-14T18:23:39.077Z,13.57
2022-10-14T18:26:17.440Z,13.56
2022-10-14T18:28:47.804Z,13.61
2022-10-14T18:31:16.963Z,13.59
2022-10-14T18:33:44.934Z,13.58
2022-10-14T18:36:14.446Z,13.56
2022-10-14T18:38:41.490Z,13.58
2022-10-14T18:41:11.972Z,13.54
2022-10-14T18:43:39.218Z,13.47
2022-10-14T18:46:10.592Z,13.43
2022-10-14T18:48:37.498Z,13.38
2022-10-14T18:51:05.279Z,13.40
2022-10-14T18:53:33.290Z,13.37
2022-10-14T18:56:08.384Z,13.34
2022-10-14T18:58:38.483Z,13.33
2022-10-14T19:01:07.793Z,13.32
2022-10-14T19:03:34.896Z,13.33
2022-10-14T19:06:02.155Z,13.34
2022-10-14T19:08:28.664Z,13.35
2022-10-14T19:11:05.981Z,13.29
2022-10-14T19:13:33.019Z,13.33
2022-10-14T19:16:04.727Z,13.30
2022-10-14T19:18:31.673Z,13.28
2022-10-14T19:21:08.610Z,13.27
2022-10-14T19:23:45.055Z,13.21
2022-10-14T19:26:14.457Z,13.13
2022-10-14T19:28:41.226Z,13.10
2022-10-14T19:31:12.455Z,13.17
2022-10-14T19:33:40.187Z,13.20
2022-10-14T19:36:07.684Z,13.26
2022-10-14T19:38:35.751Z,13.27
2022-10-14T19:41:04.752Z,13.22
2022-10-14T19:43:35.717Z,13.25
2022-10-14T19:46:10.755Z,13.23
2022-10-14T19:48:38.382Z,13.24
2022-10-14T19:51:12.129Z,13.24
2022-10-14T19:53:39.295Z,13.22
2022-10-14T19:56:08.233Z,13.20
2022-10-14T19:58:36.754Z,13.20
2022-10-14T20:01:14.010Z,13.12
2022-10-14T20:03:41.269Z,13.07
2022-10-14T20:06:08.947Z,13.03
2022-10-14T20:08:36.470Z,12.97
2022-10-14T20:11:06.802Z,12.95
2022-10-14T20:13:36.392Z,12.95
2022-10-14T20:16:04.942Z,12.97
2022-10-14T20:18:31.755Z,12.95
2022-10-14T20:20:58.326Z,12.93
2022-10-14T20:23:25.369Z,12.96
2022-10-14T20:25:51.934Z,13.02
2022-10-14T20:28:21.094Z,12.91
2022-10-14T20:30:48.309Z,12.85
2022-10-14T20:33:14.968Z,12.79
2022-10-14T20:35:41.509Z,12.78
2022-10-14T20:38:08.011Z,12.80
2022-10-14T20:40:36.129Z,12.76
2022-10-14T20:43:03.996Z,12.76
2022-10-14T20:45:30.609Z,12.72
2022-10-14T20:47:57.104Z,12.65
2022-10-14T20:50:23.608Z,12.60
2022-10-14T20:52:50.111Z,12.59
2022-10-14T20:55:16.676Z,12.59
2022-10-14T20:57:43.153Z,12.63
2022-10-14T21:00:10.170Z,12.65
2022-10-14T21:02:36.768Z,12.64
2022-10-14T21:05:03.721Z,12.62
2022-10-14T21:07:30.230Z,12.64
2022-10-14T21:09:56.707Z,12.64
2022-10-14T21:12:23.491Z,12.66
2022-10-14T21:14:50.159Z,12.70
2022-10-14T21:17:16.706Z,12.69
2022-10-14T21:19:43.339Z,12.67
2022-10-14T21:22:09.886Z,12.70
2022-10-14T21:24:40.644Z,12.65
2022-10-14T21:27:07.627Z,12.65
2022-10-14T21:29:34.200Z,12.67
2022-10-14T21:32:02.224Z,12.58
2022-10-14T21:34:30.043Z,12.60
2022-10-14T21:36:56.905Z,12.65
2022-10-14T21:39:24.287Z,12.65
2022-10-14T21:41:51.033Z,12.61
2022-10-14T21:44:20.138Z,12.68
2022-10-14T21:46:47.869Z,12.64
2022-10-14T21:49:14.384Z,12.66
2022-10-14T21:51:40.945Z,12.67
2022-10-14T21:54:12.270Z,12.59
2022-10-14T21:56:39.071Z,12.57
2022-10-14T21:59:06.106Z,12.53
2022-10-14T22:01:32.864Z,12.49
2022-10-14T22:04:03.618Z,12.48
2022-10-14T22:06:31.624Z,12.48
2022-10-14T22:09:00.077Z,12.42
2022-10-14T22:11:33.133Z,12.35
2022-10-14T22:14:01.677Z,12.43
2022-10-14T22:16:29.390Z,12.41
2022-10-14T22:18:59.047Z,12.40
2022-10-14T22:21:27.189Z,12.38
2022-10-14T22:23:53.895Z,12.32
2022-10-14T22:26:23.398Z,12.30
2022-10-14T22:28:50.878Z,12.24
2022-10-14T22:31:20.653Z,12.27
2022-10-14T22:33:48.136Z,12.24
2022-10-14T22:36:23.521Z,12.23
2022-10-14T22:38:53.439Z,12.15
2022-10-14T22:41:20.983Z,12.10
2022-10-14T22:43:49.615Z,12.10
2022-10-14T22:46:20.043Z,12.13
2022-10-14T22:48:47.672Z,12.07
2022-10-14T22:51:17.711Z,12.12
2022-10-14T22:53:44.797Z,12.11
2022-10-14T22:56:14.381Z,12.18
2022-10-14T22:58:41.453Z,12.15
2022-10-14T23:01:17.122Z,12.09
2022-10-14T23:03:44.089Z,12.08
2022-10-14T23:06:13.483Z,12.08
2022-10-14T23:08:41.175Z,12.04
2022-10-14T23:11:10.103Z,12.04
2022-10-14T23:13:36.622Z,12.03
2022-10-14T23:16:06.174Z,12.02
2022-10-14T23:18:36.287Z,12.05
2022-10-14T23:21:08.868Z,12.05
2022-10-14T23:23:35.457Z,12.06
2022-10-14T23:26:01.949Z,12.09
2022-10-14T23:28:28.526Z,12.07
2022-10-14T23:30:55.041Z,12.07
2022-10-14T23:33:22.353Z,12.12
2022-10-14T23:35:48.824Z,12.08
2022-10-14T23:38:15.355Z,12.15
2022-10-14T23:40:41.912Z,12.14
2022-10-14T23:43:08.945Z,12.20
2022-10-14T23:45:35.447Z,12.14
2022-10-14T23:48:01.905Z,12.12
2022-10-14T23:50:28.378Z,12.11
2022-10-14T23:52:54.833Z,12.08
2022-10-14T23:55:21.341Z,12.10
2022-10-14T23:57:47.869Z,12.09
